Wetterdaten: Woche 16.03.15 - 22.03.15 (KW12)
Datum Zeit Temp. Aussen +5cm Feuchte Auss Luftdruck Regen Sonnenschein Regendauer Solar Windben
16.03.2015 00:00 4,5 C 2,0 C 88 % 1024,2 hPa 0,0 l/m 0,00 h 0,00 h 0 W/m 9,5 km/h (2 Bft)
16.03.2015 01:00 3,2 C 0,4 C 88 % 1024,1 hPa 0,0 l/m 0,00 h 0,00 h 0 W/m 6,4 km/h (2 Bft)
16.03.2015 02:00 2,0 C -0,5 C 89 % 1023,7 hPa 0,0 l/m 0,00 h 0,00 h 0 W/m 3,8 km/h (1 Bft)
16.03.2015 03:00 1,0 C -1,2 C 89 % 1023,5 hPa 0,0 l/m 0,00 h 0,00 h 0 W/m 3,8 km/h (1 Bft)
16.03.2015 04:00 0,3 C -1,3 C 90 % 1023,3 hPa 0,0 l/m 0,00 h 0,00 h 0 W/m 6,0 km/h (2 Bft)
16.03.2015 05:00 0,5 C -1,1 C 93 % 1023,2 hPa 0,0 l/m 0,00 h 0,00 h 0 W/m 7,2 km/h (2 Bft)
16.03.2015 06:00 0,7 C -1,1 C 94 % 1023,1 hPa 0,0 l/m 0,03 h 0,00 h 7 W/m 8,1 km/h (2 Bft)
16.03.2015 07:00 1,1 C -0,1 C 95 % 1023,2 hPa 0,0 l/m 1,00 h 0,00 h 52 W/m 11,0 km/h (2 Bft)
16.03.2015 08:00 2,4 C 1,8 C 96 % 1023,0 hPa 0,2 l/m 1,00 h 0,00 h 183 W/m 13,4 km/h (3 Bft)
16.03.2015 09:00 4,9 C 4,6 C 96 % 1023,0 hPa 0,0 l/m 1,00 h 0,00 h 351 W/m 14,6 km/h (3 Bft)
16.03.2015 10:00 8,1 C 6,7 C 81 % 1022,8 hPa 0,0 l/m 1,00 h 0,00 h 475 W/m 15,5 km/h (3 Bft)
16.03.2015 11:00 10,1 C 8,7 C 71 % 1022,6 hPa 0,0 l/m 1,00 h 0,00 h 502 W/m 13,5 km/h (3 Bft)
16.03.2015 12:00 11,8 C 10,1 C 64 % 1022,5 hPa 0,0 l/m 0,97 h 0,00 h 589 W/m 12,9 km/h (3 Bft)
16.03.2015 13:00 12,6 C 10,8 C 62 % 1022,1 hPa 0,0 l/m 1,00 h 0,00 h 547 W/m 15,1 km/h (3 Bft)
16.03.2015 14:00 13,8 C 13,9 C 59 % 1021,6 hPa 0,0 l/m 1,00 h 0,00 h 479 W/m 13,0 km/h (3 Bft)
16.03.2015 15:00 14,2 C 12,5 C 57 % 1021,4 hPa 0,0 l/m 1,00 h 0,00 h 364 W/m 12,8 km/h (3 Bft)
16.03.2015 16:00 14,2 C 11,9 C 57 % 1021,3 hPa 0,0 l/m 1,00 h 0,00 h 218 W/m 8,0 km/h (2 Bft)
16.03.2015 17:00 13,8 C 10,0 C 58 % 1021,6 hPa 0,0 l/m 1,00 h 0,00 h 82 W/m 8,3 km/h (2 Bft)
16.03.2015 18:00 12,0 C 7,8 C 64 % 1022,5 hPa 0,0 l/m 0,47 h 0,00 h 16 W/m 6,3 km/h (2 Bft)
16.03.2015 19:00 10,2 C 6,2 C 71 % 1022,7 hPa 0,0 l/m 0,00 h 0,00 h 0 W/m 2,3 km/h (1 Bft)
16.03.2015 20:00 8,4 C 4,5 C 77 % 1022,7 hPa 0,0 l/m 0,00 h 0,00 h 0 W/m 2,4 km/h (1 Bft)
16.03.2015 21:00 6,7 C 3,1 C 81 % 1023,0 hPa 0,0 l/m 0,00 h 0,00 h 0 W/m 1,8 km/h (1 Bft)
16.03.2015 22:00 5,3 C 2,1 C 84 % 1023,1 hPa 0,0 l/m 0,00 h 0,00 h 0 W/m 3,6 km/h (1 Bft)
16.03.2015 23:00 4,2 C 1,5 C 86 % 1023,1 hPa 0,0 l/m 0,00 h 0,00 h 0 W/m 3,1 km/h (1 Bft)
17.03.2015 00:00 3,4 C 1,1 C 88 % 1023,3 hPa 0,0 l/m 0,00 h 0,00 h 0 W/m 3,8 km/h (1 Bft)
17.03.2015 01:00 2,9 C 0,9 C 90 % 1023,5 hPa 0,0 l/m 0,00 h 0,00 h 0 W/m 2,4 km/h (1 Bft)
17.03.2015 02:00 2,4 C 0,2 C 91 % 1023,5 hPa 0,0 l/m 0,00 h 0,00 h 0 W/m 1,9 km/h (1 Bft)
17.03.2015 03:00 1,7 C -0,5 C 91 % 1023,5 hPa 0,0 l/m 0,00 h 0,00 h 0 W/m 2,0 km/h (1 Bft)
17.03.2015 04:00 1,3 C -0,2 C 92 % 1023,6 hPa 0,0 l/m 0,00 h 0,00 h 0 W/m 1,6 km/h (1 Bft)
17.03.2015 05:00 1,1 C -0,6 C 93 % 1024,0 hPa 0,0 l/m 0,00 h 0,00 h 0 W/m 2,2 km/h (1 Bft)
17.03.2015 06:00 0,7 C -1,1 C 93 % 1024,0 hPa 0,0 l/m 0,00 h 0,00 h 6 W/m 2,1 km/h (1 Bft)
17.03.2015 07:00 0,4 C -0,8 C 93 % 1024,2 hPa 0,0 l/m 0,80 h 0,00 h 54 W/m 2,3 km/h (1 Bft)
17.03.2015 08:00 1,6 C 1,4 C 95 % 1024,2 hPa 0,0 l/m 1,00 h 0,00 h 195 W/m 1,2 km/h (1 Bft)
17.03.2015 09:00 5,5 C 4,9 C 97 % 1024,6 hPa 0,0 l/m 1,00 h 0,00 h 366 W/m 7,1 km/h (2 Bft)
17.03.2015 10:00 10,2 C 8,4 C 83 % 1024,4 hPa 0,0 l/m 1,00 h 0,00 h 474 W/m 11,1 km/h (2 Bft)
17.03.2015 11:00 13,9 C 11,3 C 65 % 1024,3 hPa 0,0 l/m 1,00 h 0,00 h 578 W/m 12,3 km/h (3 Bft)
17.03.2015 12:00 16,0 C 12,9 C 58 % 1023,9 hPa 0,0 l/m 0,97 h 0,00 h 604 W/m 11,1 km/h (2 Bft)
17.03.2015 13:00 17,2 C 14,5 C 54 % 1023,3 hPa 0,0 l/m 1,00 h 0,00 h 587 W/m 12,6 km/h (3 Bft)
17.03.2015 14:00 18,9 C 19,0 C 48 % 1022,8 hPa 0,0 l/m 1,00 h 0,00 h 519 W/m 14,4 km/h (3 Bft)
17.03.2015 15:00 19,5 C 16,9 C 46 % 1022,4 hPa 0,0 l/m 1,00 h 0,00 h 400 W/m 10,5 km/h (2 Bft)
17.03.2015 16:00 19,2 C 15,9 C 45 % 1022,1 hPa 0,0 l/m 1,00 h 0,00 h 253 W/m 10,1 km/h (2 Bft)
17.03.2015 17:00 18,2 C 14,2 C 47 % 1022,1 hPa 0,0 l/m 1,00 h 0,00 h 93 W/m 9,4 km/h (2 Bft)
17.03.2015 18:00 16,2 C 12,1 C 54 % 1022,7 hPa 0,0 l/m 0,52 h 0,00 h 17 W/m 8,7 km/h (2 Bft)
17.03.2015 19:00 13,5 C 8,2 C 62 % 1023,0 hPa 0,0 l/m 0,00 h 0,00 h 0 W/m 5,9 km/h (2 Bft)
17.03.2015 20:00 10,8 C 6,3 C 69 % 1023,2 hPa 0,0 l/m 0,00 h 0,00 h 0 W/m 2,4 km/h (1 Bft)
17.03.2015 21:00 8,9 C 5,1 C 75 % 1023,3 hPa 0,0 l/m 0,00 h 0,00 h 0 W/m 3,3 km/h (1 Bft)
17.03.2015 22:00 7,5 C 4,2 C 79 % 1023,4 hPa 0,0 l/m 0,00 h 0,00 h 0 W/m 2,9 km/h (1 Bft)
17.03.2015 23:00 6,4 C 3,5 C 82 % 1023,5 hPa 0,0 l/m 0,00 h 0,00 h 0 W/m 2,7 km/h (1 Bft)
18.03.2015 00:00 5,5 C 2,8 C 85 % 1023,5 hPa 0,0 l/m 0,00 h 0,00 h 0 W/m 2,0 km/h (1 Bft)
18.03.2015 01:00 4,7 C 2,2 C 87 % 1023,6 hPa 0,0 l/m 0,00 h 0,00 h 0 W/m 1,9 km/h (1 Bft)
18.03.2015 02:00 4,0 C 1,8 C 89 % 1023,6 hPa 0,0 l/m 0,00 h 0,00 h 0 W/m 1,0 km/h (0 Bft)
18.03.2015 03:00 3,4 C 1,2 C 89 % 1023,8 hPa 0,0 l/m 0,00 h 0,00 h 0 W/m 1,3 km/h (1 Bft)
18.03.2015 04:00 2,9 C 0,9 C 90 % 1024,0 hPa 0,0 l/m 0,00 h 0,00 h 0 W/m 1,2 km/h (1 Bft)
18.03.2015 05:00 2,4 C 0,6 C 91 % 1024,2 hPa 0,0 l/m 0,00 h 0,00 h 0 W/m 3,4 km/h (1 Bft)
18.03.2015 06:00 2,1 C 0,2 C 92 % 1024,5 hPa 0,0 l/m 0,10 h 0,00 h 8 W/m 3,4 km/h (1 Bft)
18.03.2015 07:00 1,9 C 0,8 C 93 % 1024,9 hPa 0,0 l/m 1,00 h 0,00 h 60 W/m 2,7 km/h (1 Bft)
18.03.2015 08:00 3,2 C 3,3 C 95 % 1025,5 hPa 0,0 l/m 1,00 h 0,00 h 173 W/m 4,9 km/h (1 Bft)
18.03.2015 09:00 6,6 C 6,7 C 97 % 1025,6 hPa 0,0 l/m 1,00 h 0,00 h 358 W/m 7,1 km/h (2 Bft)
18.03.2015 10:00 10,4 C 10,0 C 91 % 1025,6 hPa 0,0 l/m 1,00 h 0,00 h 480 W/m 11,0 km/h (2 Bft)
18.03.2015 11:00 13,1 C 12,2 C 77 % 1025,8 hPa 0,0 l/m 1,00 h 0,00 h 569 W/m 11,7 km/h (2 Bft)
18.03.2015 12:00 15,0 C 14,0 C 70 % 1025,7 hPa 0,0 l/m 0,97 h 0,00 h 589 W/m 14,4 km/h (3 Bft)
18.03.2015 13:00 16,4 C 15,4 C 64 % 1025,6 hPa 0,0 l/m 1,00 h 0,00 h 553 W/m 16,9 km/h (3 Bft)
18.03.2015 14:00 17,0 C 17,8 C 60 % 1025,2 hPa 0,0 l/m 1,00 h 0,00 h 496 W/m 19,5 km/h (3 Bft)
18.03.2015 15:00 16,7 C 15,6 C 58 % 1025,2 hPa 0,0 l/m 1,00 h 0,00 h 372 W/m 23,1 km/h (4 Bft)
18.03.2015 16:00 16,1 C 14,7 C 64 % 1025,2 hPa 0,0 l/m 1,00 h 0,00 h 215 W/m 21,5 km/h (4 Bft)
18.03.2015 17:00 14,7 C 12,7 C 70 % 1025,5 hPa 0,0 l/m 1,00 h 0,00 h 92 W/m 21,7 km/h (4 Bft)
18.03.2015 18:00 12,4 C 9,9 C 78 % 1026,1 hPa 0,0 l/m 0,53 h 0,00 h 21 W/m 16,9 km/h (3 Bft)
18.03.2015 19:00 10,2 C 7,6 C 82 % 1026,5 hPa 0,0 l/m 0,00 h 0,00 h 0 W/m 12,2 km/h (2 Bft)
18.03.2015 20:00 8,6 C 6,6 C 86 % 1026,8 hPa 0,0 l/m 0,00 h 0,00 h 0 W/m 15,8 km/h (3 Bft)
18.03.2015 21:00 7,5 C 6,4 C 91 % 1027,2 hPa 0,0 l/m 0,00 h 0,00 h 0 W/m 17,7 km/h (3 Bft)
18.03.2015 22:00 7,2 C 6,1 C 92 % 1027,4 hPa 0,0 l/m 0,00 h 0,00 h 0 W/m 15,5 km/h (3 Bft)
18.03.2015 23:00 7,0 C 6,1 C 93 % 1027,5 hPa 0,0 l/m 0,00 h 0,00 h 0 W/m 14,8 km/h (3 Bft)
19.03.2015 00:00 6,8 C 5,6 C 93 % 1027,6 hPa 0,0 l/m 0,00 h 0,00 h 0 W/m 14,2 km/h (3 Bft)
19.03.2015 01:00 6,5 C 5,6 C 93 % 1027,4 hPa 0,0 l/m 0,00 h 0,00 h 0 W/m 13,4 km/h (3 Bft)
19.03.2015 02:00 6,3 C 5,2 C 94 % 1027,2 hPa 0,0 l/m 0,00 h 0,00 h 0 W/m 12,9 km/h (3 Bft)
19.03.2015 03:00 5,9 C 5,0 C 94 % 1027,1 hPa 0,0 l/m 0,00 h 0,00 h 0 W/m 14,1 km/h (3 Bft)
19.03.2015 04:00 5,7 C 5,0 C 94 % 1027,2 hPa 0,0 l/m 0,00 h 0,00 h 0 W/m 12,1 km/h (2 Bft)
19.03.2015 05:00 5,7 C 4,9 C 95 % 1027,2 hPa 0,0 l/m 0,00 h 0,00 h 0 W/m 11,9 km/h (2 Bft)
19.03.2015 06:00 5,6 C 4,4 C 95 % 1027,3 hPa 0,0 l/m 0,00 h 0,00 h 0 W/m 12,1 km/h (2 Bft)
19.03.2015 07:00 5,6 C 4,7 C 95 % 1027,4 hPa 0,0 l/m 0,00 h 0,00 h 12 W/m 10,4 km/h (2 Bft)
19.03.2015 08:00 5,7 C 5,0 C 95 % 1027,7 hPa 0,0 l/m 0,00 h 0,00 h 29 W/m 9,1 km/h (2 Bft)
19.03.2015 09:00 5,8 C 5,1 C 95 % 1028,2 hPa 0,0 l/m 0,00 h 0,00 h 46 W/m 9,2 km/h (2 Bft)
19.03.2015 10:00 5,8 C 5,5 C 95 % 1028,3 hPa 0,0 l/m 0,00 h 0,00 h 65 W/m 10,4 km/h (2 Bft)
19.03.2015 11:00 6,1 C 5,6 C 94 % 1028,3 hPa 0,0 l/m 0,00 h 0,00 h 76 W/m 11,1 km/h (2 Bft)
19.03.2015 12:00 6,4 C 6,2 C 94 % 1028,2 hPa 0,0 l/m 0,00 h 0,00 h 85 W/m 8,5 km/h (2 Bft)
19.03.2015 13:00 6,7 C 6,7 C 93 % 1027,9 hPa 0,0 l/m 0,00 h 0,00 h 111 W/m 8,0 km/h (2 Bft)
19.03.2015 14:00 7,1 C 6,8 C 91 % 1027,5 hPa 0,0 l/m 0,00 h 0,00 h 90 W/m 8,7 km/h (2 Bft)
19.03.2015 15:00 7,2 C 6,7 C 90 % 1027,4 hPa 0,0 l/m 0,00 h 0,00 h 63 W/m 8,3 km/h (2 Bft)
19.03.2015 16:00 7,1 C 6,4 C 90 % 1027,3 hPa 0,0 l/m 0,00 h 0,00 h 42 W/m 10,6 km/h (2 Bft)
19.03.2015 17:00 6,9 C 6,1 C 91 % 1027,1 hPa 0,0 l/m 0,00 h 0,00 h 20 W/m 9,0 km/h (2 Bft)
19.03.2015 18:00 6,8 C 5,6 C 91 % 1027,2 hPa 0,0 l/m 0,00 h 0,00 h 7 W/m 8,1 km/h (2 Bft)
19.03.2015 19:00 6,7 C 5,6 C 92 % 1027,3 hPa 0,0 l/m 0,00 h 0,00 h 0 W/m 6,3 km/h (2 Bft)
19.03.2015 20:00 6,6 C 5,6 C 92 % 1027,6 hPa 0,0 l/m 0,00 h 0,00 h 0 W/m 6,9 km/h (2 Bft)
19.03.2015 21:00 6,6 C 5,6 C 92 % 1027,7 hPa 0,0 l/m 0,00 h 0,00 h 0 W/m 6,7 km/h (2 Bft)
19.03.2015 22:00 6,2 C 4,0 C 90 % 1027,5 hPa 0,0 l/m 0,00 h 0,00 h 0 W/m 4,3 km/h (1 Bft)
19.03.2015 23:00 4,9 C 2,0 C 89 % 1027,5 hPa 0,0 l/m 0,00 h 0,00 h 0 W/m 3,7 km/h (1 Bft)
20.03.2015 00:00 3,8 C 1,7 C 91 % 1027,5 hPa 0,0 l/m 0,00 h 0,00 h 0 W/m 2,7 km/h (1 Bft)
20.03.2015 01:00 3,3 C 1,3 C 91 % 1027,3 hPa 0,0 l/m 0,00 h 0,00 h 0 W/m 2,6 km/h (1 Bft)
20.03.2015 02:00 2,6 C 0,6 C 92 % 1026,9 hPa 0,0 l/m 0,00 h 0,00 h 0 W/m 1,3 km/h (1 Bft)
20.03.2015 03:00 2,2 C 1,6 C 92 % 1026,6 hPa 0,0 l/m 0,00 h 0,00 h 0 W/m 1,6 km/h (1 Bft)
20.03.2015 04:00 3,0 C 2,3 C 94 % 1026,4 hPa 0,0 l/m 0,00 h 0,00 h 0 W/m 3,3 km/h (1 Bft)
20.03.2015 05:00 3,4 C 2,9 C 95 % 1026,2 hPa 0,0 l/m 0,00 h 0,00 h 0 W/m 2,9 km/h (1 Bft)
20.03.2015 06:00 3,8 C 3,3 C 96 % 1026,2 hPa 0,0 l/m 0,00 h 0,00 h 6 W/m 2,5 km/h (1 Bft)
20.03.2015 07:00 4,0 C 3,5 C 96 % 1026,1 hPa 0,0 l/m 0,00 h 0,00 h 17 W/m 2,3 km/h (1 Bft)
20.03.2015 08:00 4,5 C 4,2 C 96 % 1026,3 hPa 0,0 l/m 0,00 h 0,00 h 44 W/m 3,3 km/h (1 Bft)
20.03.2015 09:00 5,0 C 5,0 C 97 % 1026,3 hPa 0,0 l/m 0,00 h 0,00 h 72 W/m 3,8 km/h (1 Bft)
20.03.2015 10:00 5,3 C 4,9 C 96 % 1025,9 hPa 0,0 l/m 0,00 h 0,00 h 43 W/m 5,1 km/h (1 Bft)
20.03.2015 11:00 5,5 C 5,9 C 95 % 1025,7 hPa 0,0 l/m 0,00 h 0,00 h 131 W/m 5,5 km/h (1 Bft)
20.03.2015 12:00 6,1 C 6,2 C 93 % 1025,4 hPa 0,0 l/m 0,00 h 0,00 h 155 W/m 10,1 km/h (2 Bft)
20.03.2015 13:00 5,8 C 5,7 C 92 % 1024,9 hPa 0,0 l/m 0,00 h 0,00 h 131 W/m 11,9 km/h (2 Bft)
20.03.2015 14:00 5,3 C 4,8 C 92 % 1024,3 hPa 0,0 l/m 0,00 h 0,00 h 94 W/m 12,7 km/h (3 Bft)
20.03.2015 15:00 4,8 C 4,2 C 92 % 1023,9 hPa 0,0 l/m 0,00 h 0,00 h 73 W/m 11,0 km/h (2 Bft)
20.03.2015 16:00 4,2 C 3,7 C 93 % 1023,1 hPa 0,0 l/m 0,00 h 0,00 h 63 W/m 8,3 km/h (2 Bft)
20.03.2015 17:00 4,0 C 3,3 C 93 % 1022,3 hPa 0,0 l/m 0,00 h 0,00 h 39 W/m 6,0 km/h (2 Bft)
20.03.2015 18:00 3,7 C 2,8 C 93 % 1021,7 hPa 0,0 l/m 0,00 h 0,00 h 12 W/m 7,8 km/h (2 Bft)
20.03.2015 19:00 3,3 C 2,6 C 93 % 1022,0 hPa 0,0 l/m 0,00 h 0,00 h 0 W/m 9,5 km/h (2 Bft)
20.03.2015 20:00 3,0 C 2,2 C 93 % 1022,0 hPa 0,0 l/m 0,00 h 0,00 h 0 W/m 11,4 km/h (2 Bft)
20.03.2015 21:00 2,8 C 2,0 C 92 % 1021,6 hPa 0,0 l/m 0,00 h 0,00 h 0 W/m 8,0 km/h (2 Bft)
20.03.2015 22:00 2,5 C 1,5 C 93 % 1021,0 hPa 0,0 l/m 0,00 h 0,00 h 0 W/m 7,6 km/h (2 Bft)
20.03.2015 23:00 2,6 C 1,7 C 94 % 1020,7 hPa 0,0 l/m 0,00 h 0,00 h 0 W/m 8,5 km/h (2 Bft)
21.03.2015 00:00 2,6 C 2,0 C 94 % 1019,8 hPa 0,0 l/m 0,00 h 0,00 h 0 W/m 6,9 km/h (2 Bft)
21.03.2015 01:00 2,8 C 2,2 C 95 % 1019,2 hPa 0,0 l/m 0,00 h 0,00 h 0 W/m 5,1 km/h (1 Bft)
21.03.2015 02:00 3,3 C 2,8 C 95 % 1018,7 hPa 0,0 l/m 0,00 h 0,00 h 0 W/m 9,4 km/h (2 Bft)
21.03.2015 03:00 3,6 C 2,8 C 95 % 1018,0 hPa 0,0 l/m 0,00 h 0,00 h 0 W/m 11,5 km/h (2 Bft)
21.03.2015 04:00 3,7 C 2,8 C 94 % 1017,7 hPa 0,0 l/m 0,00 h 0,00 h 0 W/m 12,6 km/h (3 Bft)
21.03.2015 05:00 3,7 C 2,3 C 94 % 1017,0 hPa 0,0 l/m 0,00 h 0,57 h 0 W/m 13,5 km/h (3 Bft)
21.03.2015 06:00 3,6 C 2,2 C 94 % 1016,9 hPa 0,4 l/m 0,00 h 0,60 h 0 W/m 16,9 km/h (3 Bft)
21.03.2015 07:00 3,6 C 2,5 C 95 % 1017,0 hPa 0,2 l/m 0,00 h 0,10 h 7 W/m 17,2 km/h (3 Bft)
21.03.2015 08:00 4,0 C 3,1 C 96 % 1017,2 hPa 0,0 l/m 0,07 h 0,03 h 46 W/m 15,4 km/h (3 Bft)
21.03.2015 09:00 5,0 C 4,7 C 97 % 1017,3 hPa 0,0 l/m 0,50 h 0,00 h 170 W/m 12,9 km/h (3 Bft)
21.03.2015 10:00 6,6 C 6,2 C 97 % 1016,9 hPa 0,0 l/m 0,43 h 0,00 h 211 W/m 16,7 km/h (3 Bft)
21.03.2015 11:00 7,1 C 6,2 C 91 % 1016,5 hPa 0,0 l/m 0,07 h 0,27 h 143 W/m 16,7 km/h (3 Bft)
21.03.2015 12:00 7,1 C 5,5 C 91 % 1016,2 hPa 1,0 l/m 0,00 h 0,97 h 119 W/m 18,0 km/h (3 Bft)
21.03.2015 13:00 7,2 C 6,4 C 94 % 1015,8 hPa 0,0 l/m 0,37 h 0,50 h 185 W/m 20,2 km/h (4 Bft)
21.03.2015 14:00 7,2 C 5,3 C 92 % 1015,8 hPa 2,0 l/m 0,00 h 0,63 h 54 W/m 17,8 km/h (3 Bft)
21.03.2015 15:00 6,8 C 6,2 C 93 % 1016,2 hPa 0,4 l/m 0,80 h 0,13 h 276 W/m 12,5 km/h (3 Bft)
21.03.2015 16:00 7,7 C 6,5 C 91 % 1016,5 hPa 0,0 l/m 0,70 h 0,03 h 165 W/m 13,3 km/h (3 Bft)
21.03.2015 17:00 8,1 C 6,5 C 84 % 1016,7 hPa 0,0 l/m 0,80 h 0,03 h 111 W/m 16,3 km/h (3 Bft)
21.03.2015 18:00 6,9 C 4,6 C 88 % 1017,8 hPa 2,2 l/m 0,00 h 0,83 h 5 W/m 15,5 km/h (3 Bft)
21.03.2015 19:00 5,9 C 4,4 C 93 % 1018,3 hPa 0,2 l/m 0,00 h 0,50 h 0 W/m 7,8 km/h (2 Bft)
21.03.2015 20:00 6,0 C 4,4 C 94 % 1019,0 hPa 0,0 l/m 0,00 h 0,00 h 0 W/m 18,8 km/h (3 Bft)
21.03.2015 21:00 5,8 C 4,1 C 94 % 1020,0 hPa 0,0 l/m 0,00 h 0,03 h 0 W/m 21,0 km/h (4 Bft)
21.03.2015 22:00 5,3 C 3,9 C 95 % 1020,6 hPa 0,2 l/m 0,00 h 0,37 h 0 W/m 19,2 km/h (3 Bft)
21.03.2015 23:00 5,1 C 3,9 C 95 % 1021,1 hPa 0,0 l/m 0,00 h 0,00 h 0 W/m 19,1 km/h (3 Bft)
22.03.2015 00:00 5,1 C 3,9 C 95 % 1021,7 hPa 0,0 l/m 0,00 h 0,00 h 0 W/m 20,0 km/h (4 Bft)
22.03.2015 01:00 5,0 C 3,3 C 95 % 1022,1 hPa 0,0 l/m 0,00 h 0,00 h 0 W/m 22,0 km/h (4 Bft)
22.03.2015 02:00 4,8 C 3,3 C 94 % 1022,5 hPa 0,0 l/m 0,00 h 0,00 h 0 W/m 23,4 km/h (4 Bft)
22.03.2015 03:00 4,7 C 3,3 C 93 % 1022,7 hPa 0,0 l/m 0,00 h 0,00 h 0 W/m 25,4 km/h (4 Bft)
22.03.2015 04:00 4,5 C 3,3 C 91 % 1023,1 hPa 0,0 l/m 0,00 h 0,00 h 0 W/m 25,7 km/h (4 Bft)
22.03.2015 05:00 4,0 C 2,9 C 90 % 1023,6 hPa 0,0 l/m 0,00 h 0,00 h 0 W/m 28,7 km/h (4 Bft)
22.03.2015 06:00 3,7 C 2,7 C 89 % 1024,0 hPa 0,0 l/m 0,00 h 0,00 h 5 W/m 27,0 km/h (4 Bft)
22.03.2015 07:00 3,5 C 2,7 C 86 % 1024,8 hPa 0,0 l/m 0,00 h 0,00 h 23 W/m 24,5 km/h (4 Bft)
22.03.2015 08:00 3,6 C 2,9 C 84 % 1025,4 hPa 0,0 l/m 0,00 h 0,00 h 54 W/m 23,6 km/h (4 Bft)
22.03.2015 09:00 3,6 C 3,2 C 84 % 1025,7 hPa 0,0 l/m 0,00 h 0,00 h 102 W/m 23,7 km/h (4 Bft)
22.03.2015 10:00 3,9 C 3,9 C 82 % 1025,8 hPa 0,0 l/m 0,03 h 0,00 h 151 W/m 23,9 km/h (4 Bft)
22.03.2015 11:00 4,1 C 4,3 C 81 % 1025,9 hPa 0,0 l/m 0,23 h 0,00 h 176 W/m 20,6 km/h (4 Bft)
22.03.2015 12:00 4,7 C 5,4 C 79 % 1025,5 hPa 0,0 l/m 0,57 h 0,00 h 299 W/m 20,0 km/h (4 Bft)
22.03.2015 13:00 5,6 C 6,0 C 76 % 1024,8 hPa 0,0 l/m 1,00 h 0,00 h 385 W/m 21,6 km/h (4 Bft)
22.03.2015 14:00 6,6 C 8,2 C 73 % 1024,0 hPa 0,0 l/m 0,97 h 0,00 h 386 W/m 18,5 km/h (3 Bft)
22.03.2015 15:00 8,1 C 7,4 C 69 % 1023,2 hPa 0,0 l/m 1,00 h 0,00 h 426 W/m 18,9 km/h (3 Bft)
22.03.2015 16:00 8,3 C 6,8 C 68 % 1022,7 hPa 0,0 l/m 1,00 h 0,00 h 307 W/m 18,2 km/h (3 Bft)
22.03.2015 17:00 8,3 C 5,8 C 68 % 1022,1 hPa 0,0 l/m 1,00 h 0,00 h 125 W/m 14,8 km/h (3 Bft)
22.03.2015 18:00 7,0 C 4,5 C 72 % 1021,9 hPa 0,0 l/m 0,63 h 0,00 h 20 W/m 10,6 km/h (2 Bft)
22.03.2015 19:00 5,3 C 2,3 C 77 % 1022,1 hPa 0,0 l/m 0,00 h 0,00 h 0 W/m 5,7 km/h (1 Bft)
22.03.2015 20:00 3,8 C 0,7 C 80 % 1022,2 hPa 0,0 l/m 0,00 h 0,00 h 0 W/m 5,5 km/h (1 Bft)
22.03.2015 21:00 2,6 C -0,1 C 83 % 1022,1 hPa 0,0 l/m 0,00 h 0,00 h 0 W/m 4,2 km/h (1 Bft)
22.03.2015 22:00 1,8 C -0,8 C 85 % 1021,8 hPa 0,0 l/m 0,00 h 0,00 h 0 W/m 2,3 km/h (1 Bft)
22.03.2015 23:00 1,0 C -1,0 C 88 % 1021,5 hPa 0,0 l/m 0,00 h 0,00 h 0 W/m 6,7 km/h (2 Bft)
Min-Datum _ 16.03.15 16.03.15 17.03.15 21.03.15 - - - - 16.03.15
_ Min-Zeit 04:18 03:46 16:34 14:12 - - - - 19:34
Minimum _ 0,3 C -1,7 C 43 % 1015,6 hPa - - - - 0,0 km/h (0 Bft)
Max-Datum _ 17.03.15 17.03.15 21.03.15 19.03.15 21.03.15 16.03.15 21.03.15 22.03.15 21.03.15
_ Max-Zeit 15:38 14:38 10:02 09:50 18:08 06:58 05:04 12:58 14:24
Maximum _ 19,7 C 22,2 C 98 % 1028,4 hPa 2,2 l/m 0,03 h 0,03 h 810 W/m 41,8 km/h
NW (6 Bft)
Durchschnitt _ 6,4 C 5,0 C 85 % 1023,6 hPa #6,8 l/m #44:31 h #5:36 h 196 W/m 10,6 km/h (2 Bft)
© 2015 W. Hausmann